Adamant, VT

2:54 AM EST on January 29, 2015 (GMT -0500)
Long Meadow Hill | Change Station
CLOSE
Current Station
Personal Weather Station
Location: Calais, VT
Elevation: 1437 ft
Nearby Weather Stations

Elev 1437 ft 44.34 °N, 72.53 °W | Updated 9 seconds ago

Partly Cloudy
Partly Cloudy
1.1 °F
Feels Like 1 °F
N
3.0
Wind Variable Wind from NW
Gusts 5.0 mph

Today
High -- | Low -- °F
--% Chance of Precip.
Yesterday
High -- | Low -- °F
Precip. -- in
7:11 AM 4:55 PM
Waxing Gibbous, 72% visible
Pressure 30.40 in
Visibility 10.0 miles
Clouds Clear
Windchill 1 °F
Dew Point 4 °F
Humidity 100%
Rainfall 0.00 in
Snow Depth Not available.
UV 0 out of 12
Pollen .10 out of 12
Air Quality Not available.
Flu Activity Not available.
METAR KMPV 290751Z AUTO 00000KT 10SM CLR M23/M25 A3030 RMK AO2 SLP294 I1000 T12281250

More Conditions Fewer Conditions

Pressure 30.40 in
Visibility 10.0 miles
Clouds Clear
Windchill 1 °F
Dew Point 4 °F
Humidity 100%
Rainfall 0.00 in
Snow Depth Not available.
UV 0 out of 12
Pollen .10 out of 12
Air Quality Not available.
Flu Activity Not available.
METAR KMPV 290751Z AUTO 00000KT 10SM CLR M23/M25 A3030 RMK AO2 SLP294 I1000 T12281250

More Conditions Fewer Conditions

10-Day Weather Forecast

Almanac

Astronomy

Jan. 29, 2015 Rise Set
Actual Time
Civil Twilight
Nautical Twilight
Astronomical Twilight
Moon
Length of Visible Light
Length of Day
Tomorrow will be .
, % of the Moon is Illuminated

Today's Extremes

State Highs State Lows

Community

WunderPhotos

Upload Photos

1,791,387 photos uploaded!

WunderBlogs® & News

Nearby

Air Quality

  Air Quality AQ Index Pollutant
Not available.

Snow Depth

Station Depth Elevation

Earthquake Activity

City Distance Mag. Time & Date
Minimum magnitude displayed is 2.5.

Coastal Water Temperatures

Place Temperature

Nearby Weather Stations